Time;durP1;ratioP1;P1;durP2;ratioP2;P2;SDS_P1;SDS_P2;PMS_P1;PMS_P2;Temp;Humidity;BMP_temperature;BMP_pressure;BME280_temperature;BME280_humidity;BME280_pressure;Samples;Min_cycle;Max_cycle;Signal;HPM_P1;HPM_P2
2022/07/05 00:01:10;;;;;;;0.60;0.60;;;22.40;77.80;;;;;;5038521;28;20045;-60
2022/07/05 00:03:36;;;;;;;0.50;0.50;;;22.30;77.70;;;;;;5052187;28;20127;-61
2022/07/05 00:06:03;;;;;;;0.40;0.40;;;22.30;77.80;;;;;;5051680;28;20056;-62
2022/07/05 00:08:28;;;;;;;0.50;0.40;;;22.30;77.90;;;;;;5051587;28;20051;-62
2022/07/05 00:10:54;;;;;;;0.30;0.30;;;22.30;77.90;;;;;;5040174;28;20041;-61
2022/07/05 00:13:20;;;;;;;0.73;0.70;;;22.30;77.90;;;;;;5044257;28;20541;-61
2022/07/05 00:15:45;;;;;;;0.57;0.57;;;22.30;78.60;;;;;;5038831;28;20441;-60
2022/07/05 00:18:11;;;;;;;0.65;0.65;;;22.30;78.00;;;;;;5044231;28;20076;-62
2022/07/05 00:20:37;;;;;;;1.25;0.63;;;22.30;78.00;;;;;;5042157;28;20048;-62
2022/07/05 00:23:03;;;;;;;0.55;0.40;;;22.30;78.00;;;;;;5046702;28;20132;-62
2022/07/05 00:25:28;;;;;;;0.45;0.40;;;22.30;78.10;;;;;;5043830;28;20049;-61
2022/07/05 00:27:54;;;;;;;0.60;0.60;;;22.30;78.10;;;;;;5048223;28;20051;-62
2022/07/05 00:30:20;;;;;;;0.60;0.60;;;22.30;78.20;;;;;;5042251;28;20418;-62
2022/07/05 00:32:45;;;;;;;0.50;0.50;;;22.30;78.20;;;;;;5048469;28;20037;-62
2022/07/05 00:35:11;;;;;;;0.43;0.40;;;22.30;78.20;;;;;;5048443;28;20048;-62
2022/07/05 00:37:37;;;;;;;0.40;0.40;;;22.30;78.20;;;;;;5050391;28;20045;-62
2022/07/05 00:40:04;;;;;;;0.32;0.32;;;22.30;78.20;;;;;;5049589;28;20036;-61
2022/07/05 00:42:31;;;;;;;0.40;0.40;;;22.30;78.30;;;;;;5048174;28;20498;-62
2022/07/05 00:44:56;;;;;;;0.52;0.52;;;22.30;78.40;;;;;;5049198;28;20105;-62
2022/07/05 00:47:23;;;;;;;1.33;0.57;;;22.30;78.40;;;;;;5043223;28;20049;-62
2022/07/05 00:49:48;;;;;;;0.45;0.30;;;22.30;78.50;;;;;;5049707;28;20175;-59
2022/07/05 00:52:15;;;;;;;0.40;0.40;;;22.30;78.40;;;;;;5041036;28;20124;-62
2022/07/05 00:54:41;;;;;;;0.93;0.55;;;22.30;78.50;;;;;;5047448;28;20049;-61
2022/07/05 00:57:07;;;;;;;0.30;0.30;;;22.30;78.50;;;;;;5045515;28;20057;-62
2022/07/05 00:59:34;;;;;;;0.45;0.45;;;22.30;78.50;;;;;;5050557;28;20056;-62
2022/07/05 01:02:00;;;;;;;0.85;0.55;;;22.30;78.50;;;;;;5049899;28;20124;-62
2022/07/05 01:04:26;;;;;;;0.63;0.60;;;22.30;78.50;;;;;;5042417;28;20120;-61
2022/07/05 01:06:53;;;;;;;0.40;0.30;;;22.30;78.60;;;;;;5043953;28;20041;-59
2022/07/05 01:09:20;;;;;;;0.68;0.57;;;22.30;78.60;;;;;;5051929;28;20049;-61
2022/07/05 01:11:48;;;;;;;0.77;0.50;;;22.20;78.50;;;;;;5052022;28;20053;-61
2022/07/05 01:14:18;;;;;;;0.80;0.73;;;22.30;78.60;;;;;;5051333;28;20100;-61
2022/07/05 01:16:44;;;;;;;0.60;0.60;;;22.30;78.60;;;;;;5041087;28;20061;-61
2022/07/05 01:19:11;;;;;;;0.30;0.30;;;22.30;78.70;;;;;;5032371;28;20116;-61
2022/07/05 01:21:40;;;;;;;0.43;0.43;;;22.30;78.70;;;;;;5030244;28;20053;-61
2022/07/05 01:24:11;;;;;;;0.60;0.60;;;22.20;78.70;;;;;;5033503;28;20041;-62
2022/07/05 01:26:38;;;;;;;2.30;0.70;;;22.30;78.70;;;;;;5051032;28;20118;-62
2022/07/05 01:29:06;;;;;;;0.60;0.60;;;22.30;78.80;;;;;;5042349;28;20049;-61
2022/07/05 01:31:32;;;;;;;0.70;0.50;;;22.20;78.70;;;;;;5042289;28;20772;-61
2022/07/05 01:33:58;;;;;;;0.52;0.40;;;22.30;78.80;;;;;;5042057;28;20049;-61
2022/07/05 01:36:24;;;;;;;0.40;0.40;;;22.20;78.80;;;;;;5029644;28;20144;-61
2022/07/05 01:38:50;;;;;;;0.40;0.35;;;22.20;78.80;;;;;;5030550;28;20140;-61
2022/07/05 01:41:16;;;;;;;0.50;0.50;;;22.20;78.80;;;;;;5039646;28;20102;-61
2022/07/05 01:43:42;;;;;;;0.40;0.40;;;22.20;78.80;;;;;;5043995;28;20111;-61
2022/07/05 01:46:09;;;;;;;0.60;0.60;;;22.20;78.90;;;;;;5050315;28;20430;-62
2022/07/05 01:48:38;;;;;;;0.93;0.43;;;22.20;78.90;;;;;;5050202;28;20063;-61
2022/07/05 01:51:07;;;;;;;0.40;0.40;;;22.20;78.90;;;;;;5032402;28;20049;-61
2022/07/05 01:53:33;;;;;;;0.60;0.60;;;22.20;78.90;;;;;;5030419;28;20126;-61
2022/07/05 01:56:00;;;;;;;0.47;0.47;;;22.20;79.00;;;;;;5041470;28;20037;-61
2022/07/05 01:58:27;;;;;;;0.50;0.50;;;22.20;79.00;;;;;;5050700;28;20179;-62
2022/07/05 02:00:55;;;;;;;0.50;0.50;;;22.20;79.00;;;;;;5043804;28;20439;-62
2022/07/05 02:03:21;;;;;;;0.65;0.65;;;22.20;79.00;;;;;;5032432;28;20053;-62
2022/07/05 02:05:47;;;;;;;0.32;0.32;;;22.20;79.00;;;;;;5032252;28;20041;-62
2022/07/05 02:08:15;;;;;;;0.50;0.50;;;22.20;79.00;;;;;;5049563;28;20041;-62
2022/07/05 02:10:41;;;;;;;0.60;0.40;;;22.20;79.10;;;;;;5045313;28;20038;-61
2022/07/05 02:13:08;;;;;;;0.75;0.75;;;22.20;79.10;;;;;;5044951;28;20080;-62
2022/07/05 02:15:35;;;;;;;0.40;0.40;;;22.20;79.20;;;;;;5039636;28;20488;-62
2022/07/05 02:18:02;;;;;;;0.55;0.47;;;22.20;79.10;;;;;;5046515;28;20084;-62
2022/07/05 02:20:29;;;;;;;0.40;0.40;;;22.20;79.20;;;;;;5049909;28;20045;-61
2022/07/05 02:22:55;;;;;;;0.55;0.55;;;22.20;79.20;;;;;;5049867;28;20056;-61
2022/07/05 02:25:21;;;;;;;0.40;0.40;;;22.20;79.20;;;;;;5038367;28;20041;-62
2022/07/05 02:27:48;;;;;;;0.40;0.40;;;22.20;79.30;;;;;;5034088;28;20652;-61
2022/07/05 02:30:14;;;;;;;0.50;0.50;;;22.20;79.30;;;;;;5043443;28;20101;-61
2022/07/05 02:32:41;;;;;;;0.60;0.60;;;22.20;79.30;;;;;;5050354;28;20113;-62
2022/07/05 02:35:09;;;;;;;0.85;0.50;;;22.20;79.30;;;;;;5045392;28;20049;-61
2022/07/05 02:37:34;;;;;;;1.10;0.77;;;22.20;79.30;;;;;;5035081;28;20080;-61
2022/07/05 02:40:00;;;;;;;0.50;0.50;;;22.20;79.40;;;;;;5050170;28;20049;-59
2022/07/05 02:42:26;;;;;;;1.95;0.70;;;22.20;79.40;;;;;;5046134;28;20041;-62
2022/07/05 02:44:52;;;;;;;0.40;0.40;;;22.20;79.40;;;;;;5030429;28;20068;-62
2022/07/05 02:47:17;;;;;;;0.50;0.50;;;22.20;79.40;;;;;;5047593;28;20044;-61
2022/07/05 02:49:43;;;;;;;0.95;0.68;;;22.20;79.40;;;;;;5032679;28;20098;-61
2022/07/05 02:52:09;;;;;;;0.75;0.70;;;22.10;79.40;;;;;;5046596;28;20048;-61
2022/07/05 02:54:34;;;;;;;0.50;0.50;;;22.20;79.50;;;;;;5041846;28;20045;-61
2022/07/05 02:57:00;;;;;;;0.55;0.52;;;22.20;79.50;;;;;;5030303;28;20057;-60
2022/07/05 02:59:26;;;;;;;0.80;0.60;;;22.20;79.50;;;;;;5047513;28;20533;-61
2022/07/05 03:01:52;;;;;;;0.50;0.50;;;22.20;79.50;;;;;;5051328;28;20044;-61
2022/07/05 03:04:18;;;;;;;0.65;0.65;;;22.20;79.50;;;;;;5039182;28;20049;-61
2022/07/05 03:06:44;;;;;;;0.60;0.60;;;22.20;79.50;;;;;;5037626;28;20057;-61
2022/07/05 03:09:10;;;;;;;1.08;0.70;;;22.10;79.50;;;;;;5052215;28;20467;-61
2022/07/05 03:11:36;;;;;;;0.50;0.50;;;22.20;79.60;;;;;;5045472;28;20056;-61
2022/07/05 03:14:02;;;;;;;0.50;0.50;;;22.20;79.60;;;;;;5054065;28;20128;-61
2022/07/05 03:16:29;;;;;;;0.50;0.50;;;22.20;79.70;;;;;;5036828;28;20542;-61
2022/07/05 03:18:55;;;;;;;0.68;0.68;;;22.10;79.60;;;;;;5047410;28;20043;-61
2022/07/05 03:21:21;;;;;;;0.73;0.55;;;22.20;79.70;;;;;;5041941;28;20407;-61
2022/07/05 03:23:47;;;;;;;0.52;0.52;;;22.10;79.60;;;;;;5034042;28;20053;-61
2022/07/05 03:26:12;;;;;;;0.52;0.52;;;22.20;79.70;;;;;;5037168;28;20053;-60
2022/07/05 03:28:38;;;;;;;0.45;0.45;;;22.10;79.60;;;;;;5048231;28;20055;-61
2022/07/05 03:31:04;;;;;;;0.47;0.47;;;22.10;79.70;;;;;;5052820;28;20045;-61
2022/07/05 03:33:29;;;;;;;0.47;0.47;;;22.20;79.70;;;;;;5051041;28;20052;-61
2022/07/05 03:35:55;;;;;;;0.50;0.50;;;22.10;79.70;;;;;;5051811;28;20045;-61
2022/07/05 03:38:21;;;;;;;0.80;0.63;;;22.10;79.80;;;;;;5048866;28;20041;-61
2022/07/05 03:40:47;;;;;;;0.50;0.50;;;22.10;79.80;;;;;;5052469;28;20190;-61
2022/07/05 03:43:12;;;;;;;0.55;0.55;;;22.10;79.80;;;;;;5053014;28;20053;-61
2022/07/05 03:45:38;;;;;;;0.40;0.40;;;22.10;79.80;;;;;;5052684;28;20045;-61
2022/07/05 03:48:04;;;;;;;0.52;0.50;;;22.10;79.80;;;;;;5049236;28;20053;-61
2022/07/05 03:50:29;;;;;;;0.60;0.60;;;22.10;79.80;;;;;;5036735;28;20422;-61
2022/07/05 03:52:55;;;;;;;0.50;0.50;;;22.10;79.80;;;;;;5051649;28;20044;-61
2022/07/05 03:55:21;;;;;;;0.50;0.50;;;22.10;79.80;;;;;;5040463;28;20060;-61
2022/07/05 03:57:47;;;;;;;0.47;0.47;;;22.10;79.90;;;;;;5039027;28;20136;-61
2022/07/05 04:00:13;;;;;;;1.30;0.70;;;22.10;79.90;;;;;;5036177;28;20050;-61
2022/07/05 04:02:39;;;;;;;0.55;0.50;;;22.10;79.90;;;;;;5052128;28;20045;-61
2022/07/05 04:05:06;;;;;;;0.40;0.40;;;22.10;80.00;;;;;;5051669;28;20067;-61
2022/07/05 04:07:32;;;;;;;0.73;0.63;;;22.10;80.00;;;;;;5043793;28;20049;-61
2022/07/05 04:09:58;;;;;;;0.43;0.43;;;22.10;80.00;;;;;;5043554;28;20052;-61
2022/07/05 04:12:23;;;;;;;0.95;0.70;;;22.10;80.10;;;;;;5037491;28;20606;-61
2022/07/05 04:14:49;;;;;;;0.50;0.50;;;22.10;80.10;;;;;;5031790;28;20045;-61
2022/07/05 04:17:15;;;;;;;0.98;0.60;;;22.10;80.10;;;;;;5034220;28;20045;-60
2022/07/05 04:19:40;;;;;;;0.50;0.50;;;22.10;80.10;;;;;;5038026;28;20037;-61
2022/07/05 04:22:06;;;;;;;0.50;0.50;;;22.10;80.10;;;;;;5043101;28;20036;-61
2022/07/05 04:25:16;;;;;;;0.82;0.52;;;22.10;80.10;;;;;;5046824;28;20522;-61
2022/07/05 04:27:18;;;;;;;0.40;0.40;;;22.10;80.20;;;;;;5040878;28;20563;-60
2022/07/05 04:29:43;;;;;;;0.50;0.50;;;22.20;80.20;;;;;;5033925;28;20124;-60
2022/07/05 04:32:09;;;;;;;0.50;0.50;;;22.20;80.20;;;;;;5052366;28;20045;-61
2022/07/05 04:34:34;;;;;;;0.40;0.40;;;22.10;80.10;;;;;;5043549;28;20554;-61
2022/07/05 04:37:00;;;;;;;0.70;0.50;;;22.20;80.20;;;;;;5030574;28;20049;-61
2022/07/05 04:39:26;;;;;;;1.33;0.50;;;22.20;80.10;;;;;;5036680;28;20053;-61
2022/07/05 04:41:51;;;;;;;0.55;0.55;;;22.20;80.10;;;;;;5050739;28;21055;-61
2022/07/05 04:44:17;;;;;;;0.47;0.47;;;22.20;80.10;;;;;;5035265;28;20561;-60
2022/07/05 04:46:42;;;;;;;0.68;0.60;;;22.20;80.10;;;;;;5032149;28;20680;-61
2022/07/05 04:49:08;;;;;;;0.40;0.40;;;22.20;80.10;;;;;;5032313;28;20391;-61
2022/07/05 04:51:34;;;;;;;0.30;0.30;;;22.20;80.00;;;;;;5030403;28;20883;-60
2022/07/05 04:53:59;;;;;;;0.80;0.60;;;22.20;80.10;;;;;;5032691;28;20485;-61
2022/07/05 04:56:25;;;;;;;0.45;0.45;;;22.20;80.10;;;;;;5031126;28;20045;-61
2022/07/05 04:58:51;;;;;;;0.40;0.40;;;22.20;80.10;;;;;;5043864;28;20053;-61
2022/07/05 05:01:16;;;;;;;0.45;0.45;;;22.20;80.10;;;;;;5039298;28;20393;-59
2022/07/05 05:03:42;;;;;;;0.60;0.60;;;22.20;80.10;;;;;;5033346;28;20055;-60
2022/07/05 05:06:08;;;;;;;0.63;0.52;;;22.30;80.20;;;;;;5035202;28;20045;-61
2022/07/05 05:08:33;;;;;;;0.50;0.50;;;22.30;80.20;;;;;;5048891;28;20502;-61
2022/07/05 05:10:59;;;;;;;0.60;0.60;;;22.30;80.20;;;;;;5044511;28;20084;-60
2022/07/05 05:13:25;;;;;;;0.73;0.55;;;22.30;80.20;;;;;;5051190;28;20049;-61
2022/07/05 05:15:50;;;;;;;0.93;0.60;;;22.30;80.20;;;;;;5048235;28;20120;-61
2022/07/05 05:18:18;;;;;;;0.75;0.40;;;22.30;80.20;;;;;;5049839;28;20098;-61
2022/07/05 05:20:44;;;;;;;0.43;0.43;;;22.30;80.30;;;;;;5043363;28;20051;-61
2022/07/05 05:23:10;;;;;;;0.65;0.50;;;22.30;80.30;;;;;;5050735;28;20145;-61
2022/07/05 05:25:36;;;;;;;0.43;0.43;;;22.30;80.30;;;;;;5027698;28;20561;-61
2022/07/05 05:28:02;;;;;;;0.52;0.52;;;22.30;80.40;;;;;;5030800;28;20049;-61
2022/07/05 05:30:28;;;;;;;0.40;0.40;;;22.30;80.40;;;;;;5034603;28;20081;-61
2022/07/05 05:32:54;;;;;;;1.60;0.60;;;22.30;80.40;;;;;;5044405;28;20081;-61
2022/07/05 05:35:21;;;;;;;0.50;0.50;;;22.40;80.40;;;;;;5039253;28;20079;-59
2022/07/05 05:37:55;;;;;;;0.40;0.40;;;22.40;80.40;;;;;;5049767;28;20036;-61
2022/07/05 05:40:22;;;;;;;2.92;0.68;;;22.40;80.50;;;;;;5034790;28;20045;-59
2022/07/05 05:42:48;;;;;;;0.50;0.50;;;22.40;80.50;;;;;;5050284;28;20048;-61
2022/07/05 05:45:15;;;;;;;0.52;0.52;;;22.40;81.10;;;;;;5050157;28;20049;-61
2022/07/05 05:47:52;;;;;;;1.15;0.50;;;22.40;80.50;;;;;;5050450;28;20584;-61
2022/07/05 05:50:20;;;;;;;0.50;0.47;;;22.40;80.50;;;;;;5038646;28;20096;-60
2022/07/05 05:52:46;;;;;;;2.15;0.70;;;22.40;80.40;;;;;;5036183;28;20079;-61
2022/07/05 05:55:12;;;;;;;0.60;0.60;;;22.40;80.40;;;;;;5050972;28;20459;-61
2022/07/05 05:57:37;;;;;;;0.60;0.60;;;22.40;80.40;;;;;;5034902;28;20053;-61
2022/07/05 06:00:07;;;;;;;0.60;0.60;;;22.40;80.40;;;;;;5044076;28;20050;-61
2022/07/05 06:02:33;;;;;;;0.85;0.60;;;22.40;80.30;;;;;;5030313;28;20049;-60
2022/07/05 06:04:59;;;;;;;0.80;0.70;;;22.40;80.30;;;;;;5049409;28;20152;-61
2022/07/05 06:07:24;;;;;;;0.43;0.43;;;22.40;80.20;;;;;;5033493;28;20061;-61
2022/07/05 06:09:50;;;;;;;0.55;0.55;;;22.40;80.20;;;;;;5032551;28;20768;-61
2022/07/05 06:12:16;;;;;;;0.73;0.68;;;22.50;80.30;;;;;;5030942;28;20049;-60
2022/07/05 06:14:41;;;;;;;0.50;0.50;;;22.40;80.20;;;;;;5030513;28;20644;-61
2022/07/05 06:17:07;;;;;;;0.60;0.60;;;22.40;80.20;;;;;;5039664;28;20498;-61
2022/07/05 06:19:33;;;;;;;0.60;0.60;;;22.50;80.20;;;;;;5050107;28;20132;-61
2022/07/05 06:21:58;;;;;;;0.73;0.65;;;22.50;80.20;;;;;;5045589;28;20056;-61
2022/07/05 06:24:24;;;;;;;0.50;0.50;;;22.50;80.20;;;;;;5050073;28;20056;-59
2022/07/05 06:26:50;;;;;;;0.60;0.60;;;22.50;80.80;;;;;;5048567;28;20503;-61
2022/07/05 06:29:15;;;;;;;0.73;0.70;;;22.50;80.20;;;;;;5030660;28;20100;-61
2022/07/05 06:31:44;;;;;;;0.75;0.75;;;22.50;80.20;;;;;;5041154;28;20112;-60
2022/07/05 06:34:09;;;;;;;0.60;0.60;;;22.50;80.20;;;;;;5049053;28;20045;-61
2022/07/05 06:36:35;;;;;;;2.28;0.68;;;22.50;80.20;;;;;;5046364;28;20122;-59
2022/07/05 06:39:01;;;;;;;0.40;0.40;;;22.50;80.20;;;;;;5046912;28;20144;-60
2022/07/05 06:41:26;;;;;;;0.60;0.60;;;22.50;80.10;;;;;;5030115;28;20064;-60
2022/07/05 06:43:52;;;;;;;0.50;0.50;;;22.50;80.20;;;;;;5030625;28;20395;-60
2022/07/05 06:46:18;;;;;;;1.90;1.00;;;22.50;80.20;;;;;;5047302;28;20045;-60
2022/07/05 06:48:43;;;;;;;0.82;0.50;;;22.50;80.10;;;;;;5049552;28;20190;-60
2022/07/05 06:51:10;;;;;;;0.82;0.68;;;22.60;80.20;;;;;;5041055;28;20049;-60
2022/07/05 06:53:36;;;;;;;0.55;0.40;;;22.60;80.20;;;;;;5034655;28;20565;-60
2022/07/05 06:56:02;;;;;;;1.70;0.60;;;22.60;80.20;;;;;;5050318;28;20175;-60
2022/07/05 06:58:27;;;;;;;0.98;0.65;;;22.50;80.10;;;;;;5046376;28;20060;-58
2022/07/05 07:00:53;;;;;;;0.60;0.60;;;22.60;80.10;;;;;;5050238;28;20059;-60
2022/07/05 07:03:19;;;;;;;1.23;0.50;;;22.60;80.10;;;;;;5041894;28;20128;-61
2022/07/05 07:05:45;;;;;;;0.50;0.50;;;22.60;80.10;;;;;;5028772;28;20049;-60
2022/07/05 07:10:55;;;;;;;8.13;1.25;;;22.60;80.10;;;;;;5037688;28;20090;-60
2022/07/05 07:13:20;;;;;;;2.97;1.30;;;22.60;80.10;;;;;;5040153;28;20124;-60
2022/07/05 07:15:47;;;;;;;0.93;0.85;;;22.60;80.00;;;;;;5029269;28;20037;-60
2022/07/05 07:18:15;;;;;;;2.75;1.10;;;22.60;80.00;;;;;;5029518;28;20052;-60
2022/07/05 07:20:41;;;;;;;1.63;1.10;;;22.60;79.90;;;;;;5029064;28;20570;-60
2022/07/05 07:23:06;;;;;;;1.33;0.93;;;22.60;79.90;;;;;;5029343;28;20420;-61
2022/07/05 07:25:32;;;;;;;2.60;1.10;;;22.60;79.90;;;;;;5036069;28;20053;-60
2022/07/05 07:27:58;;;;;;;2.50;1.30;;;22.60;79.80;;;;;;5045838;28;20120;-61
2022/07/05 07:30:28;;;;;;;1.35;0.80;;;22.70;79.90;;;;;;5041034;28;20132;-61
2022/07/05 07:32:54;;;;;;;2.30;1.10;;;22.60;79.80;;;;;;5033678;28;20076;-61
2022/07/05 07:35:20;;;;;;;1.90;1.02;;;22.60;79.70;;;;;;5034309;28;20491;-60
2022/07/05 07:37:46;;;;;;;0.77;0.77;;;22.60;79.70;;;;;;5041413;28;20052;-61
2022/07/05 07:40:12;;;;;;;1.05;0.85;;;22.70;79.80;;;;;;5048612;28;20033;-60
2022/07/05 07:42:38;;;;;;;1.13;0.98;;;22.70;79.70;;;;;;5047143;28;20102;-60
2022/07/05 07:45:05;;;;;;;0.85;0.80;;;22.70;79.70;;;;;;5042695;28;20501;-61
2022/07/05 07:47:31;;;;;;;1.70;1.05;;;22.70;79.70;;;;;;5040138;28;20049;-60
2022/07/05 07:49:57;;;;;;;1.25;0.95;;;22.60;79.60;;;;;;5045668;28;20049;-60
2022/07/05 07:52:23;;;;;;;1.33;0.90;;;22.60;79.60;;;;;;5043894;28;20053;-61
2022/07/05 07:54:48;;;;;;;2.10;1.02;;;22.60;79.60;;;;;;5046059;28;20040;-60
2022/07/05 07:57:14;;;;;;;4.72;1.02;;;22.70;79.60;;;;;;5045755;28;20048;-60
2022/07/05 07:59:40;;;;;;;0.80;0.80;;;22.60;79.50;;;;;;5046621;28;20072;-60
2022/07/05 08:02:06;;;;;;;1.42;0.88;;;22.70;79.50;;;;;;5044265;28;20112;-60
2022/07/05 08:04:32;;;;;;;1.65;1.02;;;22.70;79.50;;;;;;5042131;28;20048;-60
2022/07/05 08:06:58;;;;;;;1.08;0.80;;;22.70;79.50;;;;;;5047033;28;20049;-60
2022/07/05 08:09:24;;;;;;;1.92;1.08;;;22.70;79.40;;;;;;5045872;28;20128;-60
2022/07/05 08:11:50;;;;;;;1.58;0.90;;;22.70;79.40;;;;;;5047413;28;20048;-60
2022/07/05 08:14:16;;;;;;;1.17;0.68;;;22.70;79.50;;;;;;5049339;28;20393;-60
2022/07/05 08:16:42;;;;;;;1.95;1.10;;;22.70;79.40;;;;;;5050082;28;20425;-60
2022/07/05 08:21:52;;;;;;;1.23;0.80;;;22.70;79.40;;;;;;5032074;28;20056;-60
2022/07/05 08:24:17;;;;;;;1.90;1.00;;;22.70;79.40;;;;;;5047310;28;20052;-60
2022/07/05 08:26:43;;;;;;;1.20;0.95;;;22.70;79.40;;;;;;5038285;28;20052;-60
2022/07/05 08:29:11;;;;;;;2.35;1.05;;;22.70;79.40;;;;;;5048532;28;20048;-60
2022/07/05 08:31:46;;;;;;;1.77;0.93;;;22.70;79.40;;;;;;5044948;28;20053;-59
2022/07/05 08:34:12;;;;;;;8.40;1.35;;;22.60;79.30;;;;;;5039430;28;20128;-60
2022/07/05 08:36:40;;;;;;;2.47;1.13;;;22.60;79.30;;;;;;5034042;28;20136;-58
2022/07/05 08:39:06;;;;;;;3.78;1.10;;;22.60;80.00;;;;;;5051518;28;20433;-59
2022/07/05 08:41:36;;;;;;;2.00;1.02;;;22.60;79.30;;;;;;5049419;28;20048;-60
2022/07/05 08:44:03;;;;;;;104.35;9.57;;;22.60;79.10;;;;;;5035969;28;20053;-60
2022/07/05 08:46:34;;;;;;;13.43;2.40;;;22.70;78.90;;;;;;5037182;28;20046;-60
2022/07/05 08:49:03;;;;;;;16.92;2.00;;;22.70;78.30;;;;;;5049551;28;20524;-60
2022/07/05 08:51:32;;;;;;;12.68;1.63;;;22.70;77.80;;;;;;5034142;28;20057;-59
2022/07/05 08:53:57;;;;;;;5.45;1.30;;;22.70;77.60;;;;;;5039079;28;20049;-59
2022/07/05 08:56:23;;;;;;;19.65;1.58;;;22.60;77.30;;;;;;5045383;28;20055;-59
2022/07/05 08:58:49;;;;;;;6.38;0.88;;;22.60;77.20;;;;;;5040702;28;20067;-60
2022/07/05 09:01:15;;;;;;;2.25;0.70;;;22.60;77.20;;;;;;5046177;28;20037;-59
2022/07/05 09:03:50;;;;;;;2.88;0.60;;;22.60;77.00;;;;;;5043554;28;20047;-59
2022/07/05 09:06:19;;;;;;;5.30;1.07;;;22.50;76.90;;;;;;5041863;28;20047;-61
2022/07/05 09:08:45;;;;;;;1.88;0.80;;;22.50;77.00;;;;;;5044512;28;20049;-61
2022/07/05 09:11:15;;;;;;;2.42;0.70;;;22.50;77.00;;;;;;5041170;28;20084;-62
2022/07/05 09:13:43;;;;;;;4.07;1.08;;;22.50;76.90;;;;;;5042487;28;20081;-59
2022/07/05 09:16:09;;;;;;;4.22;1.10;;;22.50;76.90;;;;;;5050492;28;20040;-61
2022/07/05 09:18:54;;;;;;;3.05;0.90;;;22.50;76.90;;;;;;5040684;28;20554;-62
2022/07/05 09:21:22;;;;;;;4.50;0.95;;;22.60;76.80;;;;;;5031200;28;20045;-59
2022/07/05 09:23:58;;;;;;;1.55;0.80;;;22.60;76.90;;;;;;5044789;28;20045;-61
2022/07/05 09:26:35;;;;;;;0.75;0.75;;;22.60;76.90;;;;;;5045530;28;20091;-58
2022/07/05 09:29:01;;;;;;;;;;;22.60;76.30;;;;;;5044863;28;20135;-58
2022/07/05 09:31:32;;;;;;;2.13;0.82;;;22.60;75.60;;;;;;5032741;28;20290;-58
2022/07/05 09:34:08;;;;;;;1.95;0.90;;;22.50;76.40;;;;;;5036020;28;20048;-58
2022/07/05 09:36:53;;;;;;;;;;;22.50;76.10;;;;;;5049973;28;20055;-58
2022/07/05 09:39:36;;;;;;;3.13;0.90;;;22.50;75.80;;;;;;5036651;28;20449;-58
2022/07/05 09:42:08;;;;;;;3.78;0.95;;;22.50;76.00;;;;;;5030995;28;20052;-57
2022/07/05 09:44:37;;;;;;;0.75;0.70;;;22.50;76.10;;;;;;5031378;28;20049;-58
2022/07/05 09:47:10;;;;;;;0.98;0.70;;;22.50;75.90;;;;;;5040480;28;20052;-58
2022/07/05 09:49:44;;;;;;;1.85;1.35;;;22.50;75.80;;;;;;5030391;28;20073;-58
2022/07/05 09:52:12;;;;;;;1.25;0.70;;;22.50;75.80;;;;;;5034203;28;20053;-58
2022/07/05 09:54:37;;;;;;;2.25;0.65;;;22.40;75.70;;;;;;5047072;28;20054;-58
2022/07/05 09:57:03;;;;;;;1.13;0.88;;;22.40;75.70;;;;;;5044275;28;20064;-57
2022/07/05 09:59:29;;;;;;;0.90;0.60;;;22.50;75.80;;;;;;5050934;28;20041;-58
2022/07/05 10:01:55;;;;;;;2.05;1.02;;;22.50;75.80;;;;;;5049707;28;20045;-58
2022/07/05 10:04:20;;;;;;;4.50;1.27;;;22.50;75.80;;;;;;5045051;28;20103;-58
2022/07/05 10:06:47;;;;;;;2.28;0.77;;;22.50;75.80;;;;;;5048142;28;20044;-58
2022/07/05 10:09:14;;;;;;;2.22;0.95;;;22.40;75.80;;;;;;5050522;28;20044;-58
2022/07/05 10:11:42;;;;;;;3.30;0.93;;;22.50;75.70;;;;;;5037132;28;20280;-58
2022/07/05 10:14:15;;;;;;;1.95;0.73;;;22.50;75.60;;;;;;5030517;28;20037;-58
2022/07/05 10:16:45;;;;;;;0.85;0.60;;;22.50;75.50;;;;;;5036543;28;20179;-58
2022/07/05 10:19:19;;;;;;;0.50;0.50;;;22.50;75.60;;;;;;5036361;28;20052;-58
2022/07/05 10:21:45;;;;;;;1.60;0.85;;;22.50;75.60;;;;;;5033551;28;20053;-59
2022/07/05 10:24:12;;;;;;;1.25;0.52;;;22.60;75.60;;;;;;5045577;28;20077;-58
2022/07/05 10:26:39;;;;;;;2.25;0.95;;;22.60;75.60;;;;;;5039984;28;20128;-58
2022/07/05 10:29:06;;;;;;;1.42;0.90;;;22.60;75.60;;;;;;5036546;28;20053;-58
2022/07/05 10:31:32;;;;;;;2.22;0.75;;;22.60;75.60;;;;;;5040213;28;20074;-58
2022/07/05 10:34:07;;;;;;;1.10;0.77;;;22.70;75.60;;;;;;5044258;28;20044;-58
2022/07/05 10:36:34;;;;;;;1.80;0.80;;;22.70;75.60;;;;;;5040766;28;20056;-58
2022/07/05 10:39:01;;;;;;;0.95;0.77;;;22.70;75.60;;;;;;5035363;28;20083;-58
2022/07/05 10:41:29;;;;;;;1.33;0.80;;;22.70;75.60;;;;;;5041313;28;20045;-58
2022/07/05 10:43:57;;;;;;;0.45;0.45;;;22.80;75.60;;;;;;5036965;28;20053;-58
2022/07/05 10:46:37;;;;;;;0.73;0.70;;;22.80;75.60;;;;;;5046707;28;20166;-57
2022/07/05 10:49:19;;;;;;;3.97;0.90;;;22.80;75.60;;;;;;5037653;28;20555;-58
2022/07/05 10:51:46;;;;;;;1.05;0.70;;;22.80;75.60;;;;;;5042904;28;20071;-58
2022/07/05 10:54:12;;;;;;;2.30;0.77;;;22.80;75.70;;;;;;5040588;28;20045;-58
2022/07/05 10:56:39;;;;;;;0.45;0.40;;;22.80;76.30;;;;;;5042833;28;20041;-58
2022/07/05 10:59:11;;;;;;;1.15;0.60;;;22.80;75.60;;;;;;5046735;28;20045;-58
2022/07/05 11:01:40;;;;;;;1.92;0.73;;;22.90;75.70;;;;;;5042198;28;20384;-58
2022/07/05 11:04:17;;;;;;;1.08;0.65;;;22.90;75.70;;;;;;5048137;28;20124;-58
2022/07/05 11:06:46;;;;;;;1.98;0.60;;;22.90;75.70;;;;;;5033136;28;20099;-57
2022/07/05 11:09:11;;;;;;;3.25;1.05;;;22.90;75.70;;;;;;5048024;28;20044;-58
2022/07/05 11:11:45;;;;;;;3.17;0.70;;;22.90;75.70;;;;;;5047495;28;20047;-58
2022/07/05 11:14:20;;;;;;;1.55;0.68;;;22.90;75.70;;;;;;5033483;28;20049;-58
2022/07/05 11:16:47;;;;;;;4.25;1.02;;;22.90;75.60;;;;;;5041183;28;20049;-58
2022/07/05 11:19:20;;;;;;;1.52;0.77;;;22.90;75.60;;;;;;5043933;28;20068;-58
2022/07/05 11:22:07;;;;;;;2.53;0.70;;;22.90;75.60;;;;;;5047392;28;20440;-58
2022/07/05 11:24:35;;;;;;;0.60;0.60;;;22.90;75.60;;;;;;5037819;28;20045;-58
2022/07/05 11:27:03;;;;;;;1.23;0.88;;;22.90;75.60;;;;;;5049522;28;20048;-57
2022/07/05 11:29:49;;;;;;;1.45;0.40;;;22.90;75.60;;;;;;5053033;28;20119;-58
2022/07/05 11:32:22;;;;;;;0.93;0.70;;;22.90;75.60;;;;;;5048192;28;20056;-58
2022/07/05 11:34:50;;;;;;;0.75;0.68;;;23.00;75.70;;;;;;5036547;28;20116;-58
2022/07/05 11:37:18;;;;;;;1.42;0.57;;;23.00;75.70;;;;;;5035879;28;20053;-58
2022/07/05 11:39:45;;;;;;;1.48;0.63;;;22.90;75.70;;;;;;5052683;28;20049;-58
2022/07/05 11:42:19;;;;;;;1.20;0.50;;;22.90;75.60;;;;;;5051383;28;20086;-58
2022/07/05 11:44:52;;;;;;;1.42;0.65;;;23.00;75.70;;;;;;5044360;28;20060;-57
2022/07/05 11:47:17;;;;;;;0.60;0.60;;;23.00;75.70;;;;;;5050895;28;20218;-57
2022/07/05 11:49:59;;;;;;;1.10;0.80;;;23.00;75.70;;;;;;5040253;28;20499;-58
2022/07/05 11:52:25;;;;;;;3.33;0.90;;;23.00;75.20;;;;;;5035510;28;20045;-58
2022/07/05 11:54:51;;;;;;;1.48;0.80;;;22.90;75.30;;;;;;5037527;28;20106;-58
2022/07/05 11:57:19;;;;;;;3.40;1.00;;;22.90;75.20;;;;;;5046578;28;20827;-57
2022/07/05 11:59:45;;;;;;;2.20;0.90;;;22.90;75.30;;;;;;5045238;28;20391;-57
2022/07/05 12:02:11;;;;;;;1.40;0.88;;;22.90;75.00;;;;;;5051147;28;20055;-57
2022/07/05 12:04:37;;;;;;;2.10;0.85;;;22.80;74.80;;;;;;5045804;28;20487;-57
2022/07/05 12:07:03;;;;;;;3.33;0.80;;;22.80;74.80;;;;;;5031401;28;20053;-57
2022/07/05 12:15:10;;;;;;;0.85;0.70;;;22.80;74.70;;;;;;5035758;28;20052;-57
2022/07/05 12:17:37;;;;;;;6.15;1.42;;;22.80;74.60;;;;;;5048018;28;20669;-58
2022/07/05 12:20:08;;;;;;;2.55;0.63;;;22.80;74.60;;;;;;5048792;28;20069;-57
2022/07/05 12:22:39;;;;;;;2.00;0.73;;;22.80;74.60;;;;;;5045200;28;20040;-58
2022/07/05 12:25:07;;;;;;;1.30;0.68;;;22.80;74.60;;;;;;5051747;28;20077;-57
2022/07/05 12:27:37;;;;;;;1.38;0.68;;;22.80;74.60;;;;;;5048524;28;20044;-57
2022/07/05 12:30:04;;;;;;;4.05;0.90;;;22.90;74.70;;;;;;5050955;28;20041;-57
2022/07/05 12:32:30;;;;;;;1.02;0.70;;;22.80;74.60;;;;;;5051793;28;20045;-57
2022/07/05 12:34:56;;;;;;;1.05;0.80;;;22.90;74.70;;;;;;5050253;28;20045;-58
2022/07/05 12:37:24;;;;;;;2.28;0.70;;;22.90;74.70;;;;;;5050198;28;20134;-58
2022/07/05 12:40:09;;;;;;;0.50;0.50;;;22.90;74.70;;;;;;5050685;28;20053;-58
2022/07/05 12:42:36;;;;;;;1.52;0.75;;;22.90;74.70;;;;;;5042428;28;20057;-57
2022/07/05 12:45:08;;;;;;;1.58;0.90;;;22.90;74.70;;;;;;5050263;28;20406;-57
2022/07/05 12:47:47;;;;;;;0.75;0.75;;;22.90;74.70;;;;;;5050019;28;20063;-57
2022/07/05 12:50:12;;;;;;;1.75;0.70;;;22.90;74.70;;;;;;5036217;28;20091;-57
2022/07/05 12:58:57;;;;;;;1.50;0.57;;;22.90;74.20;;;;;;5046098;28;20072;-59
2022/07/05 13:01:31;;;;;;;1.55;0.55;;;22.90;73.80;;;;;;5050431;28;20107;-58
2022/07/05 13:04:11;;;;;;;1.42;0.70;;;22.80;73.80;;;;;;5033953;28;20123;-59
2022/07/05 13:06:51;;;;;;;0.60;0.60;;;22.90;73.80;;;;;;5033892;28;20076;-59